Time;durP1;ratioP1;P1;durP2;ratioP2;P2;SDS_P1;SDS_P2;PMS_P1;PMS_P2;Temp;Humidity;BMP_temperature;BMP_pressure;BME280_temperature;BME280_humidity;BME280_pressure;Samples;Min_cycle;Max_cycle;Signal;HPM_P1;HPM_P2
2022/05/21 00:01:22;;;;;;;13.45;5.82;;;;;;;;;;5070046;28;20160;-81
2022/05/21 00:03:48;;;;;;;10.65;5.72;;;;;;;;;;5071488;28;20040;-81
2022/05/21 00:06:14;;;;;;;8.85;5.75;;;;;;;;;;5073835;28;20055;-80
2022/05/21 00:08:40;;;;;;;11.32;6.18;;;;;;;;;;5069458;28;20127;-80
2022/05/21 00:11:06;;;;;;;11.70;6.05;;;;;;;;;;5069535;28;20033;-80
2022/05/21 00:13:32;;;;;;;8.15;5.60;;;;;;;;;;5076442;28;20435;-80
2022/05/21 00:15:59;;;;;;;10.00;5.95;;;;;;;;;;5087937;28;20043;-80
2022/05/21 00:18:25;;;;;;;9.38;6.15;;;;;;;;;;5069836;28;20052;-80
2022/05/21 00:20:51;;;;;;;9.27;6.50;;;;;;;;;;5068975;28;20039;-81
2022/05/21 00:23:19;;;;;;;13.38;6.60;;;;;;;;;;5069461;28;20080;-80
2022/05/21 00:25:46;;;;;;;9.23;6.40;;;;;;;;;;5070421;28;20037;-81
2022/05/21 00:28:12;;;;;;;13.05;7.43;;;;;;;;;;5069634;28;20436;-80
2022/05/21 00:30:38;;;;;;;11.95;7.38;;;;;;;;;;5052979;28;20044;-80
2022/05/21 00:33:04;;;;;;;16.95;8.25;;;;;;;;;;5071599;28;20045;-80
2022/05/21 00:35:30;;;;;;;14.23;8.13;;;;;;;;;;5069080;28;20507;-80
2022/05/21 00:37:56;;;;;;;13.75;9.00;;;;;;;;;;5070406;28;20049;-81
2022/05/21 00:40:23;;;;;;;17.13;9.77;;;;;;;;;;5068662;28;20102;-80
2022/05/21 00:42:49;;;;;;;18.38;10.23;;;;;;;;;;5071061;28;20131;-80
2022/05/21 00:45:16;;;;;;;17.80;11.18;;;;;;;;;;5068850;28;20503;-80
2022/05/21 00:47:42;;;;;;;18.55;11.80;;;;;;;;;;5087421;28;20055;-80
2022/05/21 00:50:10;;;;;;;18.08;11.68;;;;;;;;;;5085581;28;20145;-80
2022/05/21 00:52:37;;;;;;;15.70;11.50;;;;;;;;;;5070240;28;20041;-80
2022/05/21 00:55:33;;;;;;;18.77;11.75;;;;;;;;;;5069143;28;20052;-80
2022/05/21 01:00:50;;;;;;;20.30;12.50;;;;;;;;;;5072460;28;20131;-80
2022/05/21 01:03:16;;;;;;;19.77;12.63;;;;;;;;;;5088784;28;20097;-80
2022/05/21 01:05:43;;;;;;;22.90;13.60;;;;;;;;;;5089172;28;20071;-80
2022/05/21 01:08:09;;;;;;;23.30;13.50;;;;;;;;;;5088872;28;20052;-81
2022/05/21 01:10:41;;;;;;;24.10;14.40;;;;;;;;;;5068997;28;20066;-81
2022/05/21 01:13:09;;;;;;;23.95;14.98;;;;;;;;;;5068487;28;20106;-80
2022/05/21 01:15:37;;;;;;;24.35;13.68;;;;;;;;;;5084365;28;20051;-80
2022/05/21 01:18:06;;;;;;;23.60;14.32;;;;;;;;;;5088519;28;20442;-80
2022/05/21 01:20:38;;;;;;;22.75;15.52;;;;;;;;;;5078185;28;20048;-79
2022/05/21 01:23:04;;;;;;;26.42;14.73;;;;;;;;;;5069153;28;20044;-79
2022/05/21 01:25:31;;;;;;;27.38;16.13;;;;;;;;;;5069765;28;20041;-80
2022/05/21 01:27:58;;;;;;;25.20;14.40;;;;;;;;;;5067161;28;20056;-79
2022/05/21 01:30:27;;;;;;;29.40;15.20;;;;;;;;;;5070460;28;20052;-79
2022/05/21 01:32:53;;;;;;;27.65;14.10;;;;;;;;;;5069432;28;20044;-79
2022/05/21 01:35:20;;;;;;;26.58;15.38;;;;;;;;;;5068803;28;20052;-80
2022/05/21 01:37:46;;;;;;;27.42;15.25;;;;;;;;;;5068683;28;20178;-80
2022/05/21 01:40:13;;;;;;;23.35;14.82;;;;;;;;;;5069304;28;20127;-80
2022/05/21 01:42:40;;;;;;;26.95;14.30;;;;;;;;;;5068702;28;20044;-80
2022/05/21 01:45:07;;;;;;;26.23;13.40;;;;;;;;;;5072588;28;20049;-80
2022/05/21 01:47:33;;;;;;;27.63;13.88;;;;;;;;;;5068952;28;20523;-80
2022/05/21 01:49:59;;;;;;;21.15;12.77;;;;;;;;;;5068065;28;20485;-80
2022/05/21 01:52:25;;;;;;;29.17;13.35;;;;;;;;;;5068585;28;20040;-80
2022/05/21 01:54:51;;;;;;;24.27;12.15;;;;;;;;;;5068122;28;20147;-80
2022/05/21 01:57:17;;;;;;;24.02;12.30;;;;;;;;;;5068405;28;20052;-81
2022/05/21 01:59:43;;;;;;;27.38;12.65;;;;;;;;;;5068547;28;20043;-80
2022/05/21 02:02:10;;;;;;;20.88;12.32;;;;;;;;;;5067763;28;20049;-80
2022/05/21 02:04:36;;;;;;;23.23;12.07;;;;;;;;;;5069410;28;20051;-80
2022/05/21 02:07:02;;;;;;;24.90;12.85;;;;;;;;;;5069093;28;20079;-80
2022/05/21 02:09:28;;;;;;;26.65;13.55;;;;;;;;;;5073231;28;20048;-80
2022/05/21 02:11:55;;;;;;;27.08;11.77;;;;;;;;;;5088452;28;20141;-80
2022/05/21 02:14:21;;;;;;;29.17;13.45;;;;;;;;;;5081970;28;20041;-80
2022/05/21 02:16:47;;;;;;;25.92;11.48;;;;;;;;;;5066593;28;20040;-81
2022/05/21 02:19:13;;;;;;;20.42;10.40;;;;;;;;;;5069203;28;20056;-81
2022/05/21 02:21:40;;;;;;;25.23;8.90;;;;;;;;;;5069255;28;20059;-81
2022/05/21 02:24:08;;;;;;;20.30;8.82;;;;;;;;;;5072486;28;20385;-81
2022/05/21 02:26:35;;;;;;;26.65;8.60;;;;;;;;;;5089770;28;20127;-81
2022/05/21 02:29:02;;;;;;;21.95;8.18;;;;;;;;;;5086745;28;20044;-81
2022/05/21 02:31:28;;;;;;;21.27;6.32;;;;;;;;;;5049518;28;20059;-81
2022/05/21 02:33:54;;;;;;;17.15;6.00;;;;;;;;;;5066558;28;20049;-80
2022/05/21 02:39:25;;;;;;;20.92;5.90;;;;;;;;;;5073520;28;20126;-81
2022/05/21 02:41:50;;;;;;;19.25;5.78;;;;;;;;;;5091128;28;20052;-81
2022/05/21 02:44:16;;;;;;;18.67;5.50;;;;;;;;;;5070340;28;20098;-81
2022/05/21 02:46:42;;;;;;;20.25;5.78;;;;;;;;;;5070506;28;20059;-80
2022/05/21 02:49:08;;;;;;;19.73;6.32;;;;;;;;;;5071575;28;20119;-80
2022/05/21 02:51:34;;;;;;;22.38;6.22;;;;;;;;;;5072693;28;20051;-80
2022/05/21 02:54:00;;;;;;;17.75;5.88;;;;;;;;;;5078120;28;20040;-80
2022/05/21 02:56:26;;;;;;;22.33;5.75;;;;;;;;;;5093048;28;20043;-81
2022/05/21 02:58:53;;;;;;;19.00;6.05;;;;;;;;;;5072280;28;20401;-80
2022/05/21 03:01:19;;;;;;;19.80;6.18;;;;;;;;;;5071574;28;20381;-81
2022/05/21 03:03:45;;;;;;;20.25;5.90;;;;;;;;;;5071231;28;20044;-81
2022/05/21 03:06:11;;;;;;;19.35;5.60;;;;;;;;;;5070936;28;20041;-80
2022/05/21 03:11:21;;;;;;;16.30;5.72;;;;;;;;;;5073375;28;20048;-80
2022/05/21 03:13:47;;;;;;;20.75;6.78;;;;;;;;;;5070351;28;20407;-81
2022/05/21 03:16:13;;;;;;;15.05;5.47;;;;;;;;;;5071922;28;20393;-80
2022/05/21 03:18:40;;;;;;;19.40;6.15;;;;;;;;;;5072403;28;20036;-81
2022/05/21 03:21:06;;;;;;;19.40;6.28;;;;;;;;;;5071897;28;20040;-80
2022/05/21 03:23:32;;;;;;;18.45;6.53;;;;;;;;;;5078102;28;20072;-80
2022/05/21 03:25:58;;;;;;;20.92;6.50;;;;;;;;;;5079472;28;20044;-80
2022/05/21 03:28:24;;;;;;;18.92;6.20;;;;;;;;;;5071480;28;20112;-80
2022/05/21 03:30:50;;;;;;;16.08;5.68;;;;;;;;;;5072207;28;20507;-80
2022/05/21 03:33:16;;;;;;;16.23;5.60;;;;;;;;;;5070472;28;20048;-80
2022/05/21 03:35:42;;;;;;;19.33;6.13;;;;;;;;;;5071682;28;20127;-80
2022/05/21 03:38:09;;;;;;;20.67;5.85;;;;;;;;;;5077383;28;20082;-80
2022/05/21 03:40:35;;;;;;;18.90;5.70;;;;;;;;;;5081000;28;20124;-80
2022/05/21 03:43:01;;;;;;;17.60;4.85;;;;;;;;;;5070037;28;20044;-80
2022/05/21 03:45:28;;;;;;;13.40;4.88;;;;;;;;;;5069749;28;20055;-80
2022/05/21 03:47:54;;;;;;;14.70;4.75;;;;;;;;;;5087734;28;20531;-80
2022/05/21 03:50:22;;;;;;;14.93;4.43;;;;;;;;;;5086036;28;20378;-80
2022/05/21 03:52:48;;;;;;;18.60;4.28;;;;;;;;;;5070133;28;20048;-80
2022/05/21 03:55:14;;;;;;;10.38;4.03;;;;;;;;;;5070414;28;20049;-80
2022/05/21 03:57:40;;;;;;;11.65;4.00;;;;;;;;;;5069616;28;20141;-80
2022/05/21 04:00:08;;;;;;;10.02;3.88;;;;;;;;;;5071065;28;20044;-80
2022/05/21 04:02:36;;;;;;;13.18;3.90;;;;;;;;;;5087490;28;20071;-80
2022/05/21 04:05:03;;;;;;;10.52;4.03;;;;;;;;;;5080609;28;20044;-80
2022/05/21 04:07:29;;;;;;;12.57;3.92;;;;;;;;;;5070001;28;20053;-80
2022/05/21 04:09:55;;;;;;;12.43;3.88;;;;;;;;;;5069020;28;20041;-80
2022/05/21 04:12:21;;;;;;;13.93;4.35;;;;;;;;;;5070428;28;20520;-80
2022/05/21 04:14:47;;;;;;;11.52;4.20;;;;;;;;;;5070250;28;20040;-80
2022/05/21 04:17:13;;;;;;;12.07;4.07;;;;;;;;;;5074990;28;20044;-80
2022/05/21 04:19:40;;;;;;;13.60;4.40;;;;;;;;;;5072076;28;20131;-80
2022/05/21 04:22:06;;;;;;;10.75;4.60;;;;;;;;;;5068851;28;20412;-80
2022/05/21 04:24:32;;;;;;;16.60;4.72;;;;;;;;;;5070801;28;20119;-80
2022/05/21 04:26:58;;;;;;;18.10;4.47;;;;;;;;;;5068900;28;20474;-80
2022/05/21 04:29:25;;;;;;;16.17;4.65;;;;;;;;;;5069681;28;20524;-80
2022/05/21 04:31:51;;;;;;;11.30;4.40;;;;;;;;;;5070507;28;20041;-80
2022/05/21 04:34:18;;;;;;;13.77;4.45;;;;;;;;;;5069054;28;20094;-80
2022/05/21 04:36:44;;;;;;;13.82;4.07;;;;;;;;;;5072267;28;20059;-80
2022/05/21 04:39:10;;;;;;;14.38;4.35;;;;;;;;;;5069097;28;20457;-80
2022/05/21 04:41:36;;;;;;;17.23;4.32;;;;;;;;;;5069357;28;20059;-80
2022/05/21 04:44:03;;;;;;;15.23;5.15;;;;;;;;;;5070006;28;20373;-80
2022/05/21 04:46:30;;;;;;;15.15;5.32;;;;;;;;;;5070348;28;20075;-80
2022/05/21 04:48:56;;;;;;;12.85;4.68;;;;;;;;;;5070500;28;20056;-80
2022/05/21 04:51:22;;;;;;;14.02;4.10;;;;;;;;;;5079683;28;20384;-80
2022/05/21 04:53:48;;;;;;;13.32;3.83;;;;;;;;;;5089485;28;20551;-80
2022/05/21 04:56:14;;;;;;;14.70;4.68;;;;;;;;;;5088658;28;20048;-80
2022/05/21 04:58:41;;;;;;;11.95;4.07;;;;;;;;;;5072229;28;20131;-80
2022/05/21 05:01:07;;;;;;;9.95;3.85;;;;;;;;;;5090497;28;20161;-80
2022/05/21 05:03:33;;;;;;;15.85;4.47;;;;;;;;;;5081600;28;20597;-80
2022/05/21 05:06:00;;;;;;;13.38;4.07;;;;;;;;;;5071910;28;20048;-80
2022/05/21 05:08:26;;;;;;;16.65;4.35;;;;;;;;;;5070197;28;20485;-80
2022/05/21 05:10:52;;;;;;;15.82;4.30;;;;;;;;;;5067579;28;20091;-80
2022/05/21 05:13:19;;;;;;;12.10;4.38;;;;;;;;;;5088920;28;20503;-80
2022/05/21 05:15:46;;;;;;;11.75;4.30;;;;;;;;;;5088064;28;20079;-80
2022/05/21 05:18:14;;;;;;;13.48;4.03;;;;;;;;;;5089893;28;20177;-80
2022/05/21 05:20:41;;;;;;;13.93;4.80;;;;;;;;;;5090271;28;20052;-80
2022/05/21 05:23:07;;;;;;;13.68;4.28;;;;;;;;;;5088775;28;20125;-80
2022/05/21 05:25:33;;;;;;;16.38;4.70;;;;;;;;;;5086575;28;20048;-80
2022/05/21 05:27:59;;;;;;;14.38;4.20;;;;;;;;;;5069997;28;20049;-80
2022/05/21 05:30:25;;;;;;;13.30;4.32;;;;;;;;;;5067770;28;20366;-80
2022/05/21 05:32:52;;;;;;;13.25;4.38;;;;;;;;;;5051746;28;20131;-80
2022/05/21 05:35:18;;;;;;;12.88;4.13;;;;;;;;;;5069865;28;20036;-80
2022/05/21 05:37:44;;;;;;;15.90;4.95;;;;;;;;;;5048681;28;20057;-80
2022/05/21 05:40:12;;;;;;;12.48;4.50;;;;;;;;;;5047949;28;20049;-80
2022/05/21 05:42:38;;;;;;;16.08;4.28;;;;;;;;;;5069304;28;20059;-80
2022/05/21 05:45:06;;;;;;;15.05;4.35;;;;;;;;;;5074862;28;20066;-79
2022/05/21 05:47:33;;;;;;;14.50;4.70;;;;;;;;;;5089883;28;20435;-80
2022/05/21 05:50:00;;;;;;;10.50;4.10;;;;;;;;;;5089688;28;20044;-80
2022/05/21 05:52:26;;;;;;;14.70;4.10;;;;;;;;;;5086810;28;20040;-80
2022/05/21 05:54:54;;;;;;;18.13;4.85;;;;;;;;;;5069411;28;20526;-79
2022/05/21 05:57:20;;;;;;;17.80;4.57;;;;;;;;;;5069083;28;20185;-86
2022/05/21 05:59:50;;;;;;;13.95;4.45;;;;;;;;;;5071654;28;20051;-84
2022/05/21 06:05:22;;;;;;;16.35;4.68;;;;;;;;;;5084751;28;20040;-83
2022/05/21 06:07:49;;;;;;;13.73;4.18;;;;;;;;;;5051961;28;20051;-81
2022/05/21 06:10:17;;;;;;;13.13;4.40;;;;;;;;;;5070889;28;20124;-81
2022/05/21 06:12:43;;;;;;;15.55;4.30;;;;;;;;;;5070553;28;20053;-81
2022/05/21 06:15:09;;;;;;;14.05;4.80;;;;;;;;;;5071947;28;20047;-81
2022/05/21 06:17:36;;;;;;;15.80;4.20;;;;;;;;;;5079379;28;20044;-80
2022/05/21 06:20:02;;;;;;;12.90;4.30;;;;;;;;;;5093437;28;20048;-81
2022/05/21 06:22:28;;;;;;;12.77;4.00;;;;;;;;;;5093093;28;20461;-81
2022/05/21 06:24:54;;;;;;;13.30;4.65;;;;;;;;;;5083528;28;20048;-81
2022/05/21 06:27:20;;;;;;;14.43;4.18;;;;;;;;;;5071443;28;20055;-81
2022/05/21 06:29:47;;;;;;;13.63;4.45;;;;;;;;;;5073154;28;20037;-81
2022/05/21 06:32:13;;;;;;;13.68;4.15;;;;;;;;;;5071784;28;20056;-81
2022/05/21 06:34:39;;;;;;;12.65;4.10;;;;;;;;;;5073211;28;20040;-81
2022/05/21 06:37:06;;;;;;;12.65;4.60;;;;;;;;;;5071442;28;20049;-81
2022/05/21 06:39:33;;;;;;;13.52;3.90;;;;;;;;;;5071793;28;20062;-80
2022/05/21 06:41:59;;;;;;;15.95;4.15;;;;;;;;;;5073150;28;20048;-80
2022/05/21 06:44:26;;;;;;;13.32;3.92;;;;;;;;;;5069450;28;20087;-80
2022/05/21 06:46:52;;;;;;;16.40;4.30;;;;;;;;;;5072185;28;20053;-80
2022/05/21 06:49:19;;;;;;;12.90;4.00;;;;;;;;;;5072921;28;20719;-80
2022/05/21 06:51:45;;;;;;;11.65;4.55;;;;;;;;;;5072415;28;20044;-80
2022/05/21 06:54:11;;;;;;;15.65;4.07;;;;;;;;;;5071044;28;20068;-81
2022/05/21 06:56:39;;;;;;;17.10;4.82;;;;;;;;;;5071191;28;20076;-80
2022/05/21 06:59:05;;;;;;;11.52;3.90;;;;;;;;;;5071654;28;20087;-81
2022/05/21 07:01:31;;;;;;;19.58;4.15;;;;;;;;;;5075579;28;20044;-81
2022/05/21 07:03:57;;;;;;;18.45;4.68;;;;;;;;;;5085304;28;20488;-81
2022/05/21 07:09:08;;;;;;;14.18;4.00;;;;;;;;;;5069938;28;20045;-81
2022/05/21 07:11:34;;;;;;;11.48;3.60;;;;;;;;;;5069933;28;20436;-81
2022/05/21 07:14:00;;;;;;;14.32;4.13;;;;;;;;;;5074638;28;20132;-81
2022/05/21 07:16:27;;;;;;;13.82;4.25;;;;;;;;;;5072259;28;20044;-81
2022/05/21 07:18:53;;;;;;;13.75;3.83;;;;;;;;;;5070820;28;20104;-81
2022/05/21 07:21:19;;;;;;;13.48;4.13;;;;;;;;;;5069242;28;20447;-81
2022/05/21 07:23:45;;;;;;;14.13;4.05;;;;;;;;;;5069824;28;20036;-82
2022/05/21 07:26:11;;;;;;;15.55;3.85;;;;;;;;;;5071749;28;20511;-81
2022/05/21 07:28:37;;;;;;;17.20;4.35;;;;;;;;;;5071807;28;20048;-81
2022/05/21 07:31:04;;;;;;;9.75;3.55;;;;;;;;;;5071669;28;20523;-82
2022/05/21 07:33:30;;;;;;;12.43;3.58;;;;;;;;;;5070018;28;20080;-82
2022/05/21 07:35:56;;;;;;;14.93;4.43;;;;;;;;;;5074002;28;20079;-80
2022/05/21 07:38:22;;;;;;;12.70;4.47;;;;;;;;;;5074170;28;20398;-80
2022/05/21 07:40:48;;;;;;;10.90;4.10;;;;;;;;;;5064983;28;20051;-81
2022/05/21 07:43:18;;;;;;;10.05;3.80;;;;;;;;;;5071533;28;20044;-81
2022/05/21 07:45:45;;;;;;;20.83;4.53;;;;;;;;;;5062783;28;20135;-80
2022/05/21 07:48:13;;;;;;;14.00;4.32;;;;;;;;;;5070291;28;20543;-81
2022/05/21 07:50:40;;;;;;;13.40;4.15;;;;;;;;;;5070292;28;20078;-79
2022/05/21 07:53:26;;;;;;;9.77;3.40;;;;;;;;;;5067681;28;20045;-80
2022/05/21 07:55:53;;;;;;;13.60;4.55;;;;;;;;;;5060872;28;20076;-79
2022/05/21 07:58:20;;;;;;;12.15;3.72;;;;;;;;;;5070289;28;20493;-80
2022/05/21 08:00:46;;;;;;;10.57;3.75;;;;;;;;;;5072219;28;20460;-79
2022/05/21 08:03:12;;;;;;;13.63;4.22;;;;;;;;;;5069084;28;20060;-79
2022/05/21 08:05:39;;;;;;;12.52;3.75;;;;;;;;;;5070179;28;20098;-79
2022/05/21 08:08:05;;;;;;;14.38;4.32;;;;;;;;;;5069598;28;20047;-79
2022/05/21 08:10:32;;;;;;;10.93;3.55;;;;;;;;;;5070139;28;20132;-80
2022/05/21 08:12:58;;;;;;;12.65;4.00;;;;;;;;;;5070001;28;20131;-79
2022/05/21 08:15:24;;;;;;;12.48;3.60;;;;;;;;;;5069945;28;20124;-81
2022/05/21 08:17:50;;;;;;;14.05;4.18;;;;;;;;;;5070271;28;20446;-79
2022/05/21 08:20:16;;;;;;;11.63;3.83;;;;;;;;;;5069681;28;20323;-80
2022/05/21 08:28:13;;;;;;;11.68;3.70;;;;;;;;;;5084658;28;20037;-79
2022/05/21 08:30:43;;;;;;;9.25;3.50;;;;;;;;;;5070414;28;20045;-79
2022/05/21 08:33:10;;;;;;;10.52;3.60;;;;;;;;;;5068000;28;20048;-83
2022/05/21 08:35:38;;;;;;;13.05;3.78;;;;;;;;;;5069754;28;20040;-90
2022/05/21 08:38:04;;;;;;;10.27;3.65;;;;;;;;;;5070218;28;20051;-79
2022/05/21 08:40:39;;;;;;;15.32;4.00;;;;;;;;;;5069298;28;20052;-85
2022/05/21 08:43:06;;;;;;;9.23;3.80;;;;;;;;;;5069907;28;20075;-80
2022/05/21 08:45:51;;;;;;;11.63;3.88;;;;;;;;;;5084701;28;20067;-80
2022/05/21 08:48:18;;;;;;;12.20;3.72;;;;;;;;;;5069658;28;20057;-80
2022/05/21 08:50:47;;;;;;;17.98;4.35;;;;;;;;;;5069329;28;20497;-79
2022/05/21 08:53:16;;;;;;;9.15;3.78;;;;;;;;;;5069344;28;20044;-80
2022/05/21 08:55:51;;;;;;;11.50;3.60;;;;;;;;;;5069358;28;20569;-80
2022/05/21 08:58:29;;;;;;;12.65;3.60;;;;;;;;;;5072118;28;20044;-80
2022/05/21 09:00:55;;;;;;;13.82;3.40;;;;;;;;;;5076487;28;20048;-80
2022/05/21 09:03:23;;;;;;;10.75;3.42;;;;;;;;;;5070059;28;20508;-80
2022/05/21 09:06:08;;;;;;;12.88;3.72;;;;;;;;;;5051515;28;20041;-80
2022/05/21 09:08:42;;;;;;;10.73;3.85;;;;;;;;;;5069808;28;20504;-80
2022/05/21 09:11:18;;;;;;;11.35;3.20;;;;;;;;;;5070153;28;20045;-84
2022/05/21 09:14:07;;;;;;;9.85;3.42;;;;;;;;;;5056490;28;20492;-81
2022/05/21 09:16:57;;;;;;;9.55;3.08;;;;;;;;;;5046965;28;20049;-80
2022/05/21 09:19:25;;;;;;;11.75;3.55;;;;;;;;;;5047728;28;20075;-81
2022/05/21 09:21:58;;;;;;;11.88;3.65;;;;;;;;;;5030205;28;20482;-81
2022/05/21 09:24:44;;;;;;;10.15;3.80;;;;;;;;;;5047553;28;20053;-81
2022/05/21 09:27:33;;;;;;;12.40;3.67;;;;;;;;;;5046410;28;20049;-81
2022/05/21 09:30:15;;;;;;;11.15;3.97;;;;;;;;;;5030055;28;20426;-81
2022/05/21 09:32:42;;;;;;;9.35;3.50;;;;;;;;;;5047521;28;20049;-81
2022/05/21 09:35:13;;;;;;;10.77;3.25;;;;;;;;;;5046713;28;20045;-81
2022/05/21 09:37:39;;;;;;;7.00;2.88;;;;;;;;;;5047395;28;20049;-81
2022/05/21 09:40:29;;;;;;;12.40;3.55;;;;;;;;;;5046973;28;20132;-81
2022/05/21 09:45:41;;;;;;;9.30;3.35;;;;;;;;;;5046585;28;20045;-81
2022/05/21 09:48:07;;;;;;;9.50;2.75;;;;;;;;;;5046944;28;20406;-81
2022/05/21 09:50:45;;;;;;;9.13;3.20;;;;;;;;;;5029902;28;20045;-81
2022/05/21 09:53:28;;;;;;;9.75;3.40;;;;;;;;;;5047298;28;20409;-81
2022/05/21 09:56:02;;;;;;;8.98;3.22;;;;;;;;;;5051058;28;20045;-81
2022/05/21 09:58:32;;;;;;;8.13;3.20;;;;;;;;;;5068169;28;20053;-81
2022/05/21 10:00:58;;;;;;;9.75;3.28;;;;;;;;;;5068976;28;20055;-87
2022/05/21 10:03:41;;;;;;;12.90;3.47;;;;;;;;;;5069289;28;20040;-87
2022/05/21 10:06:17;;;;;;;10.10;2.90;;;;;;;;;;5067857;28;20081;-82
2022/05/21 10:11:33;;;;;;;9.85;3.10;;;;;;;;;;5067126;28;20044;-82
2022/05/21 10:14:08;;;;;;;10.90;3.13;;;;;;;;;;5079009;28;20095;-84
2022/05/21 10:16:40;;;;;;;11.50;3.10;;;;;;;;;;5069608;28;20047;-82
2022/05/21 10:19:13;;;;;;;8.85;3.70;;;;;;;;;;5069660;28;20053;-83
2022/05/21 10:22:00;;;;;;;9.40;3.20;;;;;;;;;;5069091;28;20115;-83
2022/05/21 10:24:38;;;;;;;11.52;3.40;;;;;;;;;;5068517;28;20036;-82
2022/05/21 10:27:16;;;;;;;7.60;3.13;;;;;;;;;;5080750;28;20040;-83
2022/05/21 10:29:54;;;;;;;10.70;3.50;;;;;;;;;;5087565;28;20369;-83
2022/05/21 10:32:38;;;;;;;10.35;3.38;;;;;;;;;;5090223;28;20066;-83
2022/05/21 10:35:10;;;;;;;9.68;3.10;;;;;;;;;;5070276;28;20123;-82
2022/05/21 10:37:57;;;;;;;8.10;2.83;;;;;;;;;;5068319;28;20396;-82
2022/05/21 10:40:31;;;;;;;10.20;3.15;;;;;;;;;;5067460;28;20056;-82
2022/05/21 10:43:17;;;;;;;11.02;3.13;;;;;;;;;;5087572;28;20055;-82
2022/05/21 10:45:53;;;;;;;10.65;3.55;;;;;;;;;;5068060;28;20128;-82
2022/05/21 10:48:19;;;;;;;12.00;3.38;;;;;;;;;;5068363;28;20324;-83
2022/05/21 10:51:00;;;;;;;7.57;3.00;;;;;;;;;;5051352;28;20148;-83
2022/05/21 10:53:35;;;;;;;10.07;3.33;;;;;;;;;;5049025;28;20580;-82
2022/05/21 10:56:20;;;;;;;9.30;3.23;;;;;;;;;;5050164;28;20137;-82
2022/05/21 10:58:50;;;;;;;11.23;3.72;;;;;;;;;;5088206;28;20504;-82
2022/05/21 11:01:21;;;;;;;9.18;3.30;;;;;;;;;;5091333;28;20087;-82
2022/05/21 11:03:47;;;;;;;10.32;4.00;;;;;;;;;;5088230;28;20460;-82
2022/05/21 11:06:25;;;;;;;11.38;3.50;;;;;;;;;;5050753;28;20049;-85
2022/05/21 11:08:51;;;;;;;10.57;4.03;;;;;;;;;;5069988;28;20157;-83
2022/05/21 11:11:17;;;;;;;12.77;3.70;;;;;;;;;;5086308;28;20048;-86
2022/05/21 11:13:47;;;;;;;12.15;3.83;;;;;;;;;;5083495;28;20385;-82
2022/05/21 11:16:13;;;;;;;14.30;3.70;;;;;;;;;;5072060;28;20412;-83
2022/05/21 11:18:48;;;;;;;8.57;3.55;;;;;;;;;;5077621;28;20028;-83
2022/05/21 11:21:34;;;;;;;10.30;3.40;;;;;;;;;;5092465;28;20040;-83
2022/05/21 11:24:00;;;;;;;;;;;;;;;;;;5064799;28;20049;-83
2022/05/21 11:26:48;;;;;;;8.25;3.17;;;;;;;;;;5072152;28;20023;-84
2022/05/21 11:29:19;;;;;;;10.18;3.65;;;;;;;;;;5070437;28;20048;-83
2022/05/21 11:37:23;;;;;;;9.25;3.83;;;;;;;;;;5092234;28;20059;-82
2022/05/21 11:39:54;;;;;;;13.10;4.22;;;;;;;;;;5071248;28;20044;-86
2022/05/21 11:42:24;;;;;;;9.63;3.20;;;;;;;;;;5070163;28;20413;-82
2022/05/21 11:44:58;;;;;;;9.20;3.17;;;;;;;;;;5072021;28;20036;-83
2022/05/21 11:47:24;;;;;;;9.00;3.60;;;;;;;;;;5069350;28;20048;-83
2022/05/21 11:49:56;;;;;;;9.77;2.90;;;;;;;;;;5091885;28;20067;-83
2022/05/21 11:52:28;;;;;;;9.48;3.30;;;;;;;;;;5090752;28;20068;-82
2022/05/21 11:54:54;;;;;;;10.02;3.35;;;;;;;;;;5070938;28;20037;-82
2022/05/21 11:57:32;;;;;;;10.82;2.80;;;;;;;;;;5071589;28;20405;-84
2022/05/21 11:59:59;;;;;;;9.43;2.90;;;;;;;;;;5069968;28;20091;-81
2022/05/21 12:02:25;;;;;;;10.93;3.28;;;;;;;;;;5073567;28;20104;-83
2022/05/21 12:04:56;;;;;;;9.23;3.05;;;;;;;;;;5081288;28;20041;-84
2022/05/21 12:07:40;;;;;;;10.85;3.35;;;;;;;;;;5071382;28;20041;-82
2022/05/21 12:10:27;;;;;;;7.38;3.15;;;;;;;;;;5068968;28;20055;-85
2022/05/21 12:13:05;;;;;;;9.15;3.22;;;;;;;;;;5071117;28;20052;-80
2022/05/21 12:15:58;;;;;;;10.90;3.67;;;;;;;;;;5070450;28;20056;-82
2022/05/21 12:18:42;;;;;;;10.00;3.67;;;;;;;;;;5068071;28;20063;-83
2022/05/21 12:21:12;;;;;;;10.68;3.83;;;;;;;;;;5070879;28;20086;-81
2022/05/21 12:23:42;;;;;;;13.23;4.15;;;;;;;;;;5070010;28;20051;-81
2022/05/21 12:26:18;;;;;;;10.00;3.53;;;;;;;;;;5069043;28;20055;-81
2022/05/21 12:29:02;;;;;;;9.38;3.80;;;;;;;;;;5053059;28;20048;-81
2022/05/21 12:31:32;;;;;;;9.75;3.35;;;;;;;;;;5052688;28;20036;-81
2022/05/21 12:34:13;;;;;;;9.50;3.55;;;;;;;;;;5077441;28;20106;-81
2022/05/21 12:36:50;;;;;;;7.75;3.42;;;;;;;;;;5070727;28;20504;-81
2022/05/21 12:39:18;;;;;;;8.95;3.63;;;;;;;;;;5069910;28;20047;-81
2022/05/21 12:41:50;;;;;;;7.70;3.35;;;;;;;;;;5070797;28;20405;-81
2022/05/21 12:44:34;;;;;;;11.77;3.17;;;;;;;;;;5070629;28;20052;-81
2022/05/21 12:47:01;;;;;;;8.05;3.00;;;;;;;;;;5069226;28;20109;-81
2022/05/21 12:49:27;;;;;;;8.93;3.20;;;;;;;;;;5061012;28;20051;-81
2022/05/21 12:51:56;;;;;;;9.43;3.53;;;;;;;;;;5068216;28;20052;-82
2022/05/21 12:54:23;;;;;;;11.20;3.38;;;;;;;;;;5071147;28;20128;-81
2022/05/21 12:56:49;;;;;;;9.75;3.95;;;;;;;;;;5070801;28;20135;-82
2022/05/21 12:59:23;;;;;;;10.27;3.83;;;;;;;;;;5070161;28;20055;-82
2022/05/21 13:01:52;;;;;;;8.40;3.72;;;;;;;;;;5069737;28;20049;-81
2022/05/21 13:04:38;;;;;;;9.63;3.92;;;;;;;;;;5075090;28;20461;-82
2022/05/21 13:07:07;;;;;;;;;;;;;;;;;;5049306;28;20055;-82
2022/05/21 13:09:35;;;;;;;11.35;4.00;;;;;;;;;;5049975;28;19944;-81
2022/05/21 13:12:02;;;;;;;15.10;4.28;;;;;;;;;;5070956;28;20060;-82
2022/05/21 13:14:38;;;;;;;8.90;3.50;;;;;;;;;;5089097;28;20062;-81
2022/05/21 13:17:05;;;;;;;8.40;3.15;;;;;;;;;;5084155;28;20392;-82
2022/05/21 13:19:54;;;;;;;8.38;3.30;;;;;;;;;;5051891;28;20102;-81
2022/05/21 13:22:25;;;;;;;9.23;3.40;;;;;;;;;;5069591;28;20044;-89
2022/05/21 13:25:09;;;;;;;7.35;3.35;;;;;;;;;;5070316;28;20134;-82
2022/05/21 13:27:48;;;;;;;5.45;2.90;;;;;;;;;;5074666;28;20534;-84
2022/05/21 13:30:16;;;;;;;8.75;2.88;;;;;;;;;;5090353;28;20669;-84
2022/05/21 13:32:43;;;;;;;7.80;3.28;;;;;;;;;;5081472;28;20044;-84
2022/05/21 13:35:27;;;;;;;9.88;3.25;;;;;;;;;;5069509;28;20069;-84
2022/05/21 13:37:53;;;;;;;11.10;3.45;;;;;;;;;;5069353;28;20044;-84
2022/05/21 13:40:21;;;;;;;7.50;3.03;;;;;;;;;;5070138;28;20045;-84
2022/05/21 13:42:49;;;;;;;10.13;3.42;;;;;;;;;;5083312;28;20067;-84
2022/05/21 13:45:25;;;;;;;11.02;3.63;;;;;;;;;;5089413;28;20044;-83
2022/05/21 13:48:10;;;;;;;9.27;3.28;;;;;;;;;;5081897;28;20052;-84
2022/05/21 13:50:37;;;;;;;11.15;3.50;;;;;;;;;;5068084;28;20052;-84
2022/05/21 13:53:04;;;;;;;7.95;2.92;;;;;;;;;;5069199;28;20040;-84
2022/05/21 13:55:30;;;;;;;8.13;2.85;;;;;;;;;;5069582;28;20091;-83
2022/05/21 13:58:16;;;;;;;8.70;3.03;;;;;;;;;;5071822;28;20052;-83
2022/05/21 14:00:42;;;;;;;10.35;3.20;;;;;;;;;;5074331;28;20101;-83
2022/05/21 14:03:19;;;;;;;9.93;3.10;;;;;;;;;;5066156;28;20485;-83
2022/05/21 14:05:59;;;;;;;9.52;3.35;;;;;;;;;;5067713;28;20060;-84
2022/05/21 14:08:30;;;;;;;6.95;3.10;;;;;;;;;;5086891;28;20105;-83
2022/05/21 14:10:58;;;;;;;10.13;3.53;;;;;;;;;;5083261;28;20098;-89
2022/05/21 14:13:35;;;;;;;10.13;3.35;;;;;;;;;;5068907;28;20057;-81
2022/05/21 14:16:21;;;;;;;10.07;3.35;;;;;;;;;;5068909;28;20033;-82
2022/05/21 14:18:59;;;;;;;11.02;3.53;;;;;;;;;;5066818;28;20127;-82
2022/05/21 14:21:26;;;;;;;11.10;3.30;;;;;;;;;;5067211;28;20040;-81
2022/05/21 14:24:06;;;;;;;11.60;4.07;;;;;;;;;;5082514;28;20052;-82
2022/05/21 14:26:33;;;;;;;11.50;3.88;;;;;;;;;;5073196;28;20556;-79
2022/05/21 14:29:00;;;;;;;10.45;4.00;;;;;;;;;;5070908;28;20040;-82
2022/05/21 14:31:40;;;;;;;10.93;4.20;;;;;;;;;;5069498;28;20055;-81
2022/05/21 14:34:18;;;;;;;13.32;3.70;;;;;;;;;;5052914;28;20472;-81
2022/05/21 14:36:46;;;;;;;9.75;3.20;;;;;;;;;;5055379;28;20056;-81
2022/05/21 14:39:12;;;;;;;10.75;3.40;;;;;;;;;;5052993;28;20048;-81
2022/05/21 14:41:39;;;;;;;13.18;4.13;;;;;;;;;;5066838;28;20052;-86
2022/05/21 14:44:07;;;;;;;10.68;4.53;;;;;;;;;;5072909;28;20040;-90
2022/05/21 14:49:17;;;;;;;12.43;4.90;;;;;;;;;;5070588;28;20048;-81
2022/05/21 14:54:32;;;;;;;10.65;3.40;;;;;;;;;;5070277;28;20061;-81
2022/05/21 14:56:58;;;;;;;12.48;3.55;;;;;;;;;;5071081;28;20089;-81
2022/05/21 14:59:24;;;;;;;14.00;4.10;;;;;;;;;;5075319;28;20052;-82
2022/05/21 15:01:51;;;;;;;11.10;4.00;;;;;;;;;;5069292;28;20423;-81
2022/05/21 15:04:18;;;;;;;9.63;3.92;;;;;;;;;;5059764;28;20175;-81
2022/05/21 15:06:44;;;;;;;12.60;4.35;;;;;;;;;;5066622;28;20045;-81
2022/05/21 15:09:10;;;;;;;15.73;4.35;;;;;;;;;;5070977;28;20049;-81
2022/05/21 15:11:36;;;;;;;10.88;4.50;;;;;;;;;;5071716;28;20115;-82
2022/05/21 15:14:02;;;;;;;10.38;4.07;;;;;;;;;;5066994;28;20492;-82
2022/05/21 15:16:29;;;;;;;10.25;3.97;;;;;;;;;;5052880;28;20043;-81
2022/05/21 15:18:55;;;;;;;12.20;4.20;;;;;;;;;;5055281;28;20124;-82
2022/05/21 15:21:27;;;;;;;10.75;3.72;;;;;;;;;;5053372;28;20037;-82